Time;durP1;ratioP1;P1;durP2;ratioP2;P2;SDS_P1;SDS_P2;PMS_P1;PMS_P2;Temp;Humidity;BMP_temperature;BMP_pressure;BME280_temperature;BME280_humidity;BME280_pressure;Samples;Min_cycle;Max_cycle;Signal;HPM_P1;HPM_P2
2024/01/08 00:01:14;;;;;;;3.88;2.33;;;2.20;99.90;;;;;;5058635;28;20207;-77
2024/01/08 00:03:40;;;;;;;3.53;2.57;;;2.20;99.90;;;;;;5050123;28;20164;-77
2024/01/08 00:06:06;;;;;;;4.00;2.63;;;2.20;99.90;;;;;;5058055;28;20222;-77
2024/01/08 00:08:32;;;;;;;2.80;2.20;;;2.30;99.90;;;;;;5075930;28;20569;-77
2024/01/08 00:10:58;;;;;;;2.97;2.03;;;2.30;99.90;;;;;;5058617;28;20262;-76
2024/01/08 00:13:23;;;;;;;2.60;2.20;;;2.30;99.90;;;;;;5076331;28;20180;-77
2024/01/08 00:15:49;;;;;;;2.40;1.60;;;2.30;99.90;;;;;;5049015;28;20184;-77
2024/01/08 00:18:15;;;;;;;3.17;2.53;;;2.30;99.90;;;;;;5071628;28;20206;-77
2024/01/08 00:20:41;;;;;;;2.87;2.17;;;2.30;99.90;;;;;;5072916;28;20521;-77
2024/01/08 00:23:07;;;;;;;2.88;1.80;;;2.40;99.90;;;;;;5054864;28;20234;-77
2024/01/08 00:25:33;;;;;;;3.57;2.23;;;2.40;99.90;;;;;;5068968;28;20173;-77
2024/01/08 00:27:58;;;;;;;3.53;2.50;;;2.40;99.90;;;;;;5017988;28;20231;-77
2024/01/08 00:30:24;;;;;;;3.17;2.40;;;2.40;99.90;;;;;;5068067;28;20176;-77
2024/01/08 00:32:50;;;;;;;3.80;3.20;;;2.40;99.90;;;;;;5072904;28;20180;-77
2024/01/08 00:35:16;;;;;;;3.20;2.20;;;2.40;99.90;;;;;;5072631;28;20661;-77
2024/01/08 00:37:41;;;;;;;3.13;2.23;;;2.40;99.90;;;;;;5067018;28;20213;-77
2024/01/08 00:40:11;;;;;;;3.00;2.53;;;2.50;99.90;;;;;;5027211;28;20211;-77
2024/01/08 00:42:38;;;;;;;2.80;2.30;;;2.50;99.90;;;;;;5072819;28;20176;-76
2024/01/08 00:45:04;;;;;;;3.10;2.40;;;2.40;99.90;;;;;;5054747;28;20188;-77
2024/01/08 00:47:30;;;;;;;4.00;3.22;;;2.40;99.90;;;;;;5055699;28;20655;-77
2024/01/08 00:49:56;;;;;;;6.17;3.00;;;2.50;99.90;;;;;;5072529;28;20259;-77
2024/01/08 00:52:22;;;;;;;3.63;2.40;;;2.50;99.90;;;;;;5037822;28;20593;-77
2024/01/08 00:54:48;;;;;;;2.67;2.07;;;2.50;99.90;;;;;;5072504;28;20234;-77
2024/01/08 00:57:13;;;;;;;2.63;2.20;;;2.50;99.90;;;;;;5054454;28;20337;-77
2024/01/08 00:59:39;;;;;;;3.20;2.90;;;2.40;99.90;;;;;;5071848;28;20745;-77
2024/01/08 01:02:05;;;;;;;4.30;2.70;;;2.50;99.90;;;;;;5029972;28;20181;-77
2024/01/08 01:04:30;;;;;;;3.57;2.50;;;2.50;99.90;;;;;;5029501;28;20179;-77
2024/01/08 01:06:56;;;;;;;3.43;2.63;;;2.40;99.90;;;;;;5058389;28;20196;-77
2024/01/08 01:09:22;;;;;;;3.70;2.30;;;2.50;99.90;;;;;;5071703;28;20179;-77
2024/01/08 01:11:47;;;;;;;4.60;3.37;;;2.50;99.90;;;;;;5054418;28;20183;-77
2024/01/08 01:14:13;;;;;;;5.00;3.43;;;2.50;99.90;;;;;;5028891;28;20192;-77
2024/01/08 01:16:38;;;;;;;3.30;2.67;;;2.50;99.90;;;;;;5054225;28;20202;-77
2024/01/08 01:19:04;;;;;;;4.83;3.53;;;2.50;99.90;;;;;;5036870;28;20200;-77
2024/01/08 01:21:30;;;;;;;4.30;3.00;;;2.50;99.90;;;;;;5037174;28;20530;-77
2024/01/08 01:23:57;;;;;;;3.33;2.37;;;2.40;99.90;;;;;;5071746;28;20302;-78
2024/01/08 01:26:22;;;;;;;5.05;3.33;;;2.50;99.90;;;;;;5045891;28;20192;-77
2024/01/08 01:28:48;;;;;;;5.67;2.10;;;2.50;99.90;;;;;;5052906;28;20181;-77
2024/01/08 01:31:14;;;;;;;3.30;2.90;;;2.50;99.90;;;;;;5071816;28;20662;-76
2024/01/08 01:33:40;;;;;;;4.13;2.80;;;2.50;99.90;;;;;;5053549;28;20678;-76
2024/01/08 01:36:06;;;;;;;3.85;2.90;;;2.50;99.90;;;;;;5053792;28;20622;-76
2024/01/08 01:38:32;;;;;;;4.07;3.22;;;2.40;99.90;;;;;;5044729;28;20219;-76
2024/01/08 01:40:58;;;;;;;3.87;3.20;;;2.40;99.90;;;;;;5053854;28;20203;-77
2024/01/08 01:43:26;;;;;;;3.10;2.63;;;2.40;99.90;;;;;;5057271;28;20180;-77
2024/01/08 01:46:07;;;;;;;4.15;2.70;;;2.40;99.90;;;;;;5063442;28;20606;-77
2024/01/08 01:48:34;;;;;;;3.42;2.83;;;2.40;99.90;;;;;;5019905;28;20179;-77
2024/01/08 01:51:02;;;;;;;4.35;3.17;;;2.40;99.90;;;;;;5036971;28;20176;-76
2024/01/08 01:53:28;;;;;;;4.88;3.80;;;2.30;99.90;;;;;;5036737;28;20180;-77
2024/01/08 01:55:54;;;;;;;4.60;3.50;;;2.30;99.90;;;;;;5053353;28;20172;-77
2024/01/08 01:58:21;;;;;;;2.85;2.20;;;2.30;99.90;;;;;;5052929;28;20172;-77
2024/01/08 02:00:47;;;;;;;4.05;2.55;;;2.30;99.90;;;;;;5053175;28;20596;-77
2024/01/08 02:03:13;;;;;;;4.10;2.87;;;2.30;99.90;;;;;;5036740;28;20174;-77
2024/01/08 02:05:39;;;;;;;5.50;3.50;;;2.30;99.90;;;;;;5071034;28;20583;-77
2024/01/08 02:08:07;;;;;;;2.58;1.98;;;2.30;99.90;;;;;;5052731;28;20538;-77
2024/01/08 02:10:33;;;;;;;4.28;2.83;;;2.30;99.90;;;;;;5070993;28;20184;-77
2024/01/08 02:13:00;;;;;;;4.32;3.17;;;2.30;99.90;;;;;;5071008;28;20168;-77
2024/01/08 02:15:26;;;;;;;4.55;3.10;;;2.30;99.90;;;;;;5052964;28;20553;-78
2024/01/08 02:17:52;;;;;;;5.10;3.23;;;2.30;99.90;;;;;;5049217;28;20207;-77
2024/01/08 02:20:18;;;;;;;4.50;3.63;;;2.30;99.90;;;;;;5054932;28;20204;-77
2024/01/08 02:22:43;;;;;;;4.53;3.20;;;2.20;99.90;;;;;;5029432;28;20234;-77
2024/01/08 02:25:10;;;;;;;4.10;2.80;;;2.20;99.90;;;;;;5052918;28;20191;-77
2024/01/08 02:27:36;;;;;;;4.38;3.28;;;2.20;99.90;;;;;;5019220;28;20288;-77
2024/01/08 02:30:02;;;;;;;4.00;2.63;;;2.20;99.90;;;;;;5019971;28;20669;-77
2024/01/08 02:32:27;;;;;;;3.80;3.50;;;2.20;99.90;;;;;;5070561;28;20180;-77
2024/01/08 02:34:53;;;;;;;4.43;3.40;;;2.20;99.90;;;;;;5052706;28;20622;-77
2024/01/08 02:37:19;;;;;;;5.33;2.70;;;2.10;99.90;;;;;;5052210;28;20622;-77
2024/01/08 02:39:45;;;;;;;3.50;3.00;;;2.20;99.90;;;;;;5051248;28;20196;-77
2024/01/08 02:42:13;;;;;;;3.10;2.70;;;2.10;99.90;;;;;;5052864;28;20187;-77
2024/01/08 02:44:40;;;;;;;4.43;3.42;;;2.10;99.90;;;;;;5070148;28;20173;-77
2024/01/08 02:47:06;;;;;;;4.07;2.38;;;2.10;99.90;;;;;;5037312;28;20299;-77
2024/01/08 02:49:31;;;;;;;5.20;2.60;;;2.10;99.90;;;;;;5068652;28;21044;-77
2024/01/08 02:51:57;;;;;;;4.70;2.77;;;2.10;99.90;;;;;;5070608;28;20168;-77
2024/01/08 02:54:23;;;;;;;4.20;3.00;;;2.10;99.90;;;;;;5052323;28;20668;-77
2024/01/08 02:56:50;;;;;;;2.80;2.50;;;2.00;99.90;;;;;;5065405;28;20196;-77
2024/01/08 02:59:16;;;;;;;3.17;2.50;;;2.00;99.90;;;;;;5052104;28;20204;-77
2024/01/08 03:01:42;;;;;;;4.50;2.90;;;2.00;99.90;;;;;;5052412;28;20176;-77
2024/01/08 03:04:08;;;;;;;3.10;2.10;;;2.00;99.90;;;;;;5052217;28;21031;-77
2024/01/08 03:06:33;;;;;;;3.47;2.30;;;2.00;99.90;;;;;;5052400;28;20192;-77
2024/01/08 03:08:59;;;;;;;4.10;2.63;;;2.00;99.90;;;;;;5045574;28;20189;-77
2024/01/08 03:11:25;;;;;;;5.37;2.67;;;2.00;99.90;;;;;;5034183;28;20637;-77
2024/01/08 03:13:50;;;;;;;3.80;3.03;;;2.00;99.90;;;;;;5052294;28;20176;-77
2024/01/08 03:16:19;;;;;;;2.83;2.13;;;2.00;99.90;;;;;;5052085;28;20204;-77
2024/01/08 03:18:48;;;;;;;4.15;2.85;;;2.00;99.90;;;;;;5051712;28;20572;-77
2024/01/08 03:21:13;;;;;;;3.60;2.80;;;2.00;99.90;;;;;;5052290;28;20187;-77
2024/01/08 03:23:39;;;;;;;3.60;2.60;;;2.00;99.90;;;;;;5070013;28;20652;-77
2024/01/08 03:26:05;;;;;;;4.07;2.80;;;2.00;99.90;;;;;;5070181;28;20200;-77
2024/01/08 03:28:31;;;;;;;4.30;3.35;;;2.00;99.90;;;;;;5069431;28;20704;-77
2024/01/08 03:30:56;;;;;;;4.60;3.43;;;2.00;99.90;;;;;;5046348;28;20279;-77
2024/01/08 03:33:23;;;;;;;3.40;2.97;;;2.00;99.90;;;;;;5032826;28;20179;-77
2024/01/08 03:35:49;;;;;;;3.70;2.90;;;2.00;99.90;;;;;;5050999;28;20181;-76
2024/01/08 03:38:15;;;;;;;6.67;3.20;;;2.00;99.90;;;;;;5031650;28;20186;-76
2024/01/08 03:40:41;;;;;;;4.70;3.63;;;1.90;99.90;;;;;;5051940;28;20303;-76
2024/01/08 03:43:06;;;;;;;3.13;2.83;;;1.90;99.90;;;;;;5052062;28;20868;-76
2024/01/08 03:45:32;;;;;;;4.57;3.63;;;2.00;99.90;;;;;;5026985;28;20610;-76
2024/01/08 03:47:58;;;;;;;5.70;4.40;;;1.90;99.90;;;;;;5051067;28;20732;-76
2024/01/08 03:50:23;;;;;;;5.00;3.90;;;1.90;99.90;;;;;;5046226;28;20588;-76
2024/01/08 03:52:49;;;;;;;6.83;4.37;;;1.90;99.90;;;;;;5073504;28;20187;-76
2024/01/08 03:55:15;;;;;;;4.20;3.40;;;1.80;99.90;;;;;;5039058;28;20220;-76
2024/01/08 03:57:40;;;;;;;5.03;4.07;;;1.80;99.90;;;;;;5046690;28;20895;-76
2024/01/08 04:00:07;;;;;;;5.00;3.70;;;1.80;99.90;;;;;;5055182;28;20674;-76
2024/01/08 04:02:40;;;;;;;4.65;3.80;;;1.80;99.90;;;;;;5054927;28;20176;-77
2024/01/08 04:05:08;;;;;;;5.47;4.63;;;1.80;99.90;;;;;;5073331;28;20586;-77
2024/01/08 04:07:34;;;;;;;4.88;4.05;;;1.80;99.90;;;;;;5013655;28;20201;-77
2024/01/08 04:10:00;;;;;;;4.23;3.70;;;1.70;99.90;;;;;;5055503;28;20613;-77
2024/01/08 04:12:26;;;;;;;5.50;4.55;;;1.70;99.90;;;;;;5042710;28;20193;-77
2024/01/08 04:14:52;;;;;;;4.20;3.80;;;1.60;99.90;;;;;;5055750;28;20176;-77
2024/01/08 04:17:17;;;;;;;6.30;4.47;;;1.60;99.90;;;;;;5046302;28;20201;-77
2024/01/08 04:19:43;;;;;;;4.70;4.20;;;1.60;99.90;;;;;;5056706;28;20579;-77
2024/01/08 04:22:09;;;;;;;6.00;4.70;;;1.60;99.90;;;;;;5073285;28;20634;-77
2024/01/08 04:24:34;;;;;;;3.80;3.30;;;1.50;99.90;;;;;;5038257;28;20575;-77
2024/01/08 04:27:00;;;;;;;5.17;4.13;;;1.50;99.90;;;;;;5055064;28;20192;-77
2024/01/08 04:29:26;;;;;;;5.35;4.43;;;1.50;99.90;;;;;;5053072;28;20188;-77
2024/01/08 04:31:52;;;;;;;6.10;4.20;;;1.50;99.90;;;;;;5047932;28;20179;-78
2024/01/08 04:34:17;;;;;;;6.03;3.80;;;1.50;99.90;;;;;;5054733;28;20832;-78
2024/01/08 04:36:43;;;;;;;5.10;4.40;;;1.50;99.90;;;;;;5072966;28;20682;-78
2024/01/08 04:39:09;;;;;;;5.00;4.20;;;1.50;99.90;;;;;;5037673;28;20249;-78
2024/01/08 04:41:36;;;;;;;5.80;4.07;;;1.50;99.90;;;;;;5046569;28;20595;-78
2024/01/08 04:44:01;;;;;;;5.65;4.93;;;1.50;99.90;;;;;;5054750;28;20169;-78
2024/01/08 04:46:27;;;;;;;6.03;4.17;;;1.50;99.90;;;;;;5051383;28;20211;-77
2024/01/08 04:48:53;;;;;;;13.50;4.90;;;1.50;99.90;;;;;;5054276;28;20177;-78
2024/01/08 04:51:22;;;;;;;5.30;4.20;;;1.50;99.90;;;;;;5069055;28;20180;-78
2024/01/08 04:53:49;;;;;;;6.75;4.75;;;1.50;99.90;;;;;;5057743;28;20202;-78
2024/01/08 04:56:22;;;;;;;6.57;4.45;;;1.50;99.90;;;;;;5054439;28;20200;-78
2024/01/08 04:58:52;;;;;;;8.32;4.55;;;1.50;99.90;;;;;;5036045;28;20200;-78
2024/01/08 05:01:18;;;;;;;4.80;4.30;;;1.60;99.90;;;;;;5042574;28;20165;-78
2024/01/08 05:03:44;;;;;;;6.50;4.50;;;1.60;99.90;;;;;;5060242;28;20662;-78
2024/01/08 05:06:10;;;;;;;5.80;5.03;;;1.60;99.90;;;;;;5045478;28;20610;-79
2024/01/08 05:08:38;;;;;;;5.30;4.45;;;1.60;99.90;;;;;;5071794;28;21059;-78
2024/01/08 05:11:07;;;;;;;6.35;4.82;;;1.70;99.90;;;;;;5054488;28;20233;-77
2024/01/08 05:13:34;;;;;;;6.53;5.47;;;1.70;99.90;;;;;;5072271;28;20226;-78
2024/01/08 05:16:00;;;;;;;7.30;5.35;;;1.70;99.90;;;;;;5066640;28;20628;-78
2024/01/08 05:18:37;;;;;;;7.07;5.50;;;1.70;99.90;;;;;;5068782;28;20201;-78
2024/01/08 05:21:07;;;;;;;7.20;5.90;;;1.70;99.90;;;;;;5056183;28;20216;-78
2024/01/08 05:23:33;;;;;;;6.03;5.32;;;1.70;99.90;;;;;;5072598;28;20179;-78
2024/01/08 05:26:00;;;;;;;8.03;6.10;;;1.70;99.90;;;;;;5038631;28;20192;-76
2024/01/08 05:28:28;;;;;;;7.97;6.15;;;1.70;99.90;;;;;;5049881;28;20603;-75
2024/01/08 05:30:54;;;;;;;6.47;5.82;;;1.80;99.90;;;;;;5035111;28;20234;-76
2024/01/08 05:33:20;;;;;;;5.43;4.45;;;1.80;99.90;;;;;;5051901;28;20176;-77
2024/01/08 05:35:46;;;;;;;5.75;4.93;;;1.80;99.90;;;;;;5072224;28;20180;-76
2024/01/08 05:38:12;;;;;;;7.93;6.10;;;1.90;99.90;;;;;;5038886;28;20180;-76
2024/01/08 05:40:38;;;;;;;5.80;5.13;;;1.90;99.90;;;;;;5042488;28;20729;-76
2024/01/08 05:43:04;;;;;;;7.30;6.10;;;1.90;99.90;;;;;;5036760;28;20612;-76
2024/01/08 05:45:30;;;;;;;6.50;5.47;;;1.90;99.90;;;;;;5037521;28;20176;-76
2024/01/08 05:47:57;;;;;;;8.55;5.45;;;1.90;99.90;;;;;;5026872;28;21039;-76
2024/01/08 05:50:27;;;;;;;7.65;6.00;;;1.90;99.90;;;;;;5043814;28;20189;-76
2024/01/08 05:52:56;;;;;;;7.40;5.47;;;1.90;99.90;;;;;;5022872;28;20177;-76
2024/01/08 05:55:23;;;;;;;7.15;6.47;;;1.90;99.90;;;;;;5022554;28;20184;-76
2024/01/08 05:57:48;;;;;;;8.40;6.57;;;1.90;99.90;;;;;;5051311;28;20196;-76
2024/01/08 06:00:15;;;;;;;8.90;6.57;;;1.90;99.90;;;;;;5038499;28;20196;-77
2024/01/08 06:02:42;;;;;;;8.55;6.85;;;1.90;99.90;;;;;;5033694;28;20587;-77
2024/01/08 06:05:11;;;;;;;6.82;6.13;;;1.90;99.90;;;;;;5031009;28;20208;-77
2024/01/08 06:07:37;;;;;;;9.30;7.22;;;1.90;99.90;;;;;;5029520;28;20201;-77
2024/01/08 06:10:03;;;;;;;7.97;6.80;;;1.90;99.90;;;;;;5013861;28;20193;-77
2024/01/08 06:12:30;;;;;;;8.85;7.10;;;1.90;99.90;;;;;;5006277;28;20584;-77
2024/01/08 06:14:56;;;;;;;8.85;7.65;;;1.90;99.90;;;;;;5032176;28;20203;-76
2024/01/08 06:17:22;;;;;;;8.05;6.82;;;1.90;99.90;;;;;;5008743;28;20200;-76
2024/01/08 06:19:48;;;;;;;8.50;6.90;;;2.00;99.90;;;;;;5024405;28;20208;-75
2024/01/08 06:22:15;;;;;;;8.38;7.18;;;1.90;99.90;;;;;;5024919;28;20211;-76
2024/01/08 06:24:41;;;;;;;8.40;7.18;;;1.90;99.90;;;;;;5048702;28;20260;-77
2024/01/08 06:27:07;;;;;;;9.03;7.10;;;1.90;99.90;;;;;;5029674;28;20256;-77
2024/01/08 06:29:33;;;;;;;7.90;6.22;;;1.90;99.90;;;;;;5026855;28;20594;-76
2024/01/08 06:31:59;;;;;;;7.75;6.40;;;1.90;99.90;;;;;;5027211;28;20174;-76
2024/01/08 06:34:25;;;;;;;5.20;4.63;;;1.90;99.90;;;;;;5013106;28;20549;-76
2024/01/08 06:36:51;;;;;;;8.10;5.97;;;2.00;99.90;;;;;;5032966;28;20208;-76
2024/01/08 06:39:16;;;;;;;6.97;4.47;;;2.00;99.90;;;;;;5043484;28;20627;-77
2024/01/08 06:41:42;;;;;;;7.80;5.37;;;2.00;99.90;;;;;;5032802;28;20573;-77
2024/01/08 06:44:08;;;;;;;7.47;4.85;;;2.00;99.90;;;;;;5036817;28;20226;-76
2024/01/08 06:46:34;;;;;;;5.13;4.27;;;2.00;99.90;;;;;;5031483;28;20200;-75
2024/01/08 06:49:00;;;;;;;5.13;4.50;;;2.00;99.90;;;;;;5035757;28;21047;-76
2024/01/08 06:51:26;;;;;;;5.00;3.50;;;2.00;99.90;;;;;;5050243;28;20603;-76
2024/01/08 06:53:52;;;;;;;4.50;3.97;;;2.00;99.90;;;;;;5024810;28;20180;-76
2024/01/08 06:56:18;;;;;;;5.00;3.67;;;2.00;99.90;;;;;;5050774;28;20193;-76
2024/01/08 06:58:43;;;;;;;4.90;3.87;;;2.00;99.90;;;;;;5049711;28;20177;-76
2024/01/08 07:01:09;;;;;;;5.23;3.90;;;2.10;99.90;;;;;;5032999;28;20579;-76
2024/01/08 07:03:35;;;;;;;5.83;4.37;;;2.00;99.90;;;;;;5042491;28;20173;-77
2024/01/08 07:06:04;;;;;;;7.17;4.70;;;2.00;99.90;;;;;;5028183;28;20886;-78
2024/01/08 07:08:30;;;;;;;4.85;3.30;;;2.00;99.90;;;;;;5038856;28;20181;-77
2024/01/08 07:10:55;;;;;;;4.53;3.47;;;2.10;99.90;;;;;;5042808;28;20668;-78
2024/01/08 07:13:21;;;;;;;3.80;3.23;;;2.10;99.90;;;;;;5041129;28;20254;-78
2024/01/08 07:15:48;;;;;;;4.53;3.87;;;2.10;99.90;;;;;;5039372;28;20548;-77
2024/01/08 07:18:20;;;;;;;5.60;3.38;;;2.10;99.90;;;;;;5033832;28;20584;-78
2024/01/08 07:20:47;;;;;;;3.80;2.95;;;2.10;99.90;;;;;;5042251;28;20196;-78
2024/01/08 07:23:13;;;;;;;5.05;4.55;;;2.10;99.90;;;;;;5038310;28;20177;-78
2024/01/08 07:25:40;;;;;;;4.22;3.13;;;2.10;99.90;;;;;;5033426;28;20191;-78
2024/01/08 07:28:08;;;;;;;5.25;4.18;;;2.10;99.90;;;;;;5054055;28;20674;-77
2024/01/08 07:30:35;;;;;;;4.75;3.45;;;2.10;99.90;;;;;;5050696;28;20180;-77
2024/01/08 07:33:01;;;;;;;4.53;4.07;;;2.00;99.90;;;;;;5054365;28;20185;-77
2024/01/08 07:35:27;;;;;;;4.60;4.05;;;2.00;99.90;;;;;;5053829;28;20208;-77
2024/01/08 07:37:55;;;;;;;5.43;4.37;;;2.00;99.90;;;;;;5036258;28;20204;-77
2024/01/08 07:40:27;;;;;;;5.10;3.88;;;2.00;99.90;;;;;;5053595;28;20207;-77
2024/01/08 07:42:54;;;;;;;3.47;2.70;;;2.00;99.90;;;;;;5036030;28;20181;-77
2024/01/08 07:45:21;;;;;;;4.28;3.17;;;2.00;99.90;;;;;;5045526;28;20183;-77
2024/01/08 07:47:47;;;;;;;3.35;2.83;;;2.00;99.90;;;;;;5035345;28;20212;-76
2024/01/08 07:50:13;;;;;;;6.78;3.15;;;2.00;99.90;;;;;;5027649;28;20180;-77
2024/01/08 07:52:39;;;;;;;3.90;3.07;;;2.00;99.90;;;;;;5045775;28;20602;-78
2024/01/08 07:55:05;;;;;;;4.63;3.03;;;2.00;99.90;;;;;;5032729;28;20185;-75
2024/01/08 07:57:30;;;;;;;4.72;3.15;;;2.10;99.90;;;;;;5053072;28;20216;-75
2024/01/08 07:59:57;;;;;;;4.97;2.93;;;2.10;99.90;;;;;;5053303;28;20232;-75
2024/01/08 08:02:23;;;;;;;3.42;2.75;;;2.10;99.90;;;;;;5049426;28;20604;-75
2024/01/08 08:04:50;;;;;;;3.20;2.90;;;2.10;99.90;;;;;;5032632;28;20189;-75
2024/01/08 08:07:16;;;;;;;3.40;2.65;;;2.10;99.90;;;;;;5053222;28;20217;-74
2024/01/08 08:09:42;;;;;;;4.68;3.22;;;2.10;99.90;;;;;;5051951;28;20198;-75
2024/01/08 08:12:09;;;;;;;4.30;2.78;;;2.10;99.90;;;;;;5035316;28;20169;-75
2024/01/08 08:14:36;;;;;;;2.95;2.47;;;2.10;99.90;;;;;;5035026;28;20197;-74
2024/01/08 08:17:05;;;;;;;3.40;2.70;;;2.20;99.90;;;;;;5035278;28;20197;-76
2024/01/08 08:19:31;;;;;;;3.75;2.50;;;2.20;99.90;;;;;;5034405;28;20204;-75
2024/01/08 08:21:57;;;;;;;3.27;2.30;;;2.20;99.90;;;;;;5035058;28;20226;-76
2024/01/08 08:24:23;;;;;;;4.20;2.65;;;2.20;99.90;;;;;;5019237;28;20588;-76
2024/01/08 08:26:49;;;;;;;4.03;2.50;;;2.20;99.90;;;;;;5033702;28;20200;-75
2024/01/08 08:29:15;;;;;;;6.05;2.33;;;2.20;99.90;;;;;;5017699;28;20603;-76
2024/01/08 08:31:41;;;;;;;3.93;2.63;;;2.30;99.90;;;;;;5052861;28;20181;-75
2024/01/08 08:34:09;;;;;;;2.83;2.50;;;2.20;99.90;;;;;;5036514;28;20576;-75
2024/01/08 08:36:37;;;;;;;4.13;2.85;;;2.30;99.90;;;;;;5029522;28;20566;-77
2024/01/08 08:39:03;;;;;;;5.28;2.80;;;2.30;99.90;;;;;;5045922;28;20288;-76
2024/01/08 08:41:29;;;;;;;3.63;2.90;;;2.30;99.90;;;;;;5036589;28;20265;-76
2024/01/08 08:43:54;;;;;;;3.07;2.33;;;2.40;99.90;;;;;;5044768;28;20705;-76
2024/01/08 08:46:20;;;;;;;2.77;2.07;;;2.40;99.90;;;;;;5044250;28;20209;-76
2024/01/08 08:48:46;;;;;;;3.80;2.43;;;2.50;99.90;;;;;;5017118;28;20174;-75
2024/01/08 08:51:12;;;;;;;3.07;2.30;;;2.60;99.90;;;;;;5034656;28;21171;-73
2024/01/08 08:53:38;;;;;;;3.97;2.90;;;2.60;99.90;;;;;;5051435;28;20184;-73
2024/01/08 08:56:04;;;;;;;5.03;2.30;;;2.70;99.90;;;;;;5027247;28;20193;-74
2024/01/08 08:58:30;;;;;;;5.53;2.38;;;2.80;99.90;;;;;;5051901;28;20169;-73
2024/01/08 09:00:56;;;;;;;4.47;2.60;;;2.80;99.90;;;;;;5043448;28;20209;-74
2024/01/08 09:03:22;;;;;;;3.63;2.60;;;2.90;99.90;;;;;;5011284;28;20697;-73
2024/01/08 09:05:48;;;;;;;4.37;2.37;;;2.90;99.90;;;;;;5030934;28;20596;-73
2024/01/08 09:08:14;;;;;;;4.60;2.80;;;3.00;99.90;;;;;;5017241;28;20633;-73
2024/01/08 09:10:39;;;;;;;7.70;2.37;;;3.10;99.90;;;;;;5052021;28;20226;-73
2024/01/08 09:13:05;;;;;;;3.60;2.50;;;3.10;99.90;;;;;;5029356;28;20635;-73
2024/01/08 09:15:31;;;;;;;3.97;2.50;;;3.20;99.90;;;;;;5043876;28;20204;-73
2024/01/08 09:17:57;;;;;;;3.38;2.05;;;3.20;99.90;;;;;;5051413;28;20249;-73
2024/01/08 09:20:23;;;;;;;4.50;2.40;;;3.20;99.90;;;;;;5051485;28;20589;-73
2024/01/08 09:22:48;;;;;;;4.65;3.83;;;3.20;99.90;;;;;;5042895;28;20185;-76
2024/01/08 09:25:14;;;;;;;3.70;2.70;;;3.20;99.90;;;;;;4997087;28;20174;-76
2024/01/08 09:27:42;;;;;;;3.67;2.50;;;3.20;99.90;;;;;;5046121;28;20211;-76
2024/01/08 09:30:08;;;;;;;4.60;3.40;;;3.20;99.90;;;;;;5043740;28;20583;-75
2024/01/08 09:32:34;;;;;;;3.67;2.92;;;3.30;99.90;;;;;;5015637;28;20177;-76
2024/01/08 09:35:00;;;;;;;4.40;3.27;;;3.30;99.90;;;;;;5015322;28;20169;-76
2024/01/08 09:37:26;;;;;;;4.60;3.40;;;3.30;99.90;;;;;;5049122;28;20288;-76
2024/01/08 09:39:53;;;;;;;5.27;3.57;;;3.30;99.90;;;;;;5024416;28;20287;-76
2024/01/08 09:42:21;;;;;;;3.55;2.58;;;3.20;99.90;;;;;;5051369;28;20173;-76
2024/01/08 09:44:50;;;;;;;4.55;3.40;;;3.20;99.90;;;;;;5017154;28;20227;-76
2024/01/08 09:47:16;;;;;;;5.10;3.45;;;3.10;99.90;;;;;;5044237;28;20212;-76
2024/01/08 09:49:44;;;;;;;5.13;3.15;;;3.10;99.90;;;;;;5024057;28;20213;-76
2024/01/08 09:52:13;;;;;;;4.28;3.58;;;3.10;99.90;;;;;;4996491;28;20186;-76
2024/01/08 09:54:40;;;;;;;6.72;4.13;;;3.10;99.90;;;;;;5031863;28;20185;-76
2024/01/08 09:57:08;;;;;;;3.72;2.80;;;3.10;99.90;;;;;;5017877;28;20675;-76
2024/01/08 09:59:34;;;;;;;6.00;3.63;;;3.10;99.90;;;;;;5026146;28;20205;-76
2024/01/08 10:02:00;;;;;;;3.83;3.22;;;3.20;99.90;;;;;;5028196;28;20234;-76
2024/01/08 10:04:27;;;;;;;5.28;3.03;;;3.30;99.90;;;;;;5019619;28;20208;-75
2024/01/08 10:07:05;;;;;;;4.20;3.30;;;3.40;99.90;;;;;;5043360;28;20288;-76
2024/01/08 10:09:30;;;;;;;5.80;3.72;;;3.50;99.90;;;;;;5022863;28;20212;-76
2024/01/08 10:11:57;;;;;;;3.40;2.30;;;3.70;99.90;;;;;;5031504;28;20204;-76
2024/01/08 10:14:25;;;;;;;4.00;3.13;;;3.70;99.90;;;;;;5050785;28;20264;-76
2024/01/08 10:16:51;;;;;;;3.47;2.90;;;3.90;99.90;;;;;;5022901;28;20198;-76
2024/01/08 10:19:18;;;;;;;4.65;3.05;;;3.90;99.90;;;;;;5012364;28;20594;-76
2024/01/08 10:21:47;;;;;;;3.70;2.50;;;3.90;99.90;;;;;;5030685;28;20185;-76
2024/01/08 10:24:13;;;;;;;3.67;3.38;;;3.90;99.90;;;;;;5031332;28;20197;-76
2024/01/08 10:26:40;;;;;;;5.88;3.00;;;3.90;99.90;;;;;;5015266;28;20189;-76
2024/01/08 10:29:11;;;;;;;3.17;2.63;;;3.90;99.90;;;;;;5042267;28;20180;-76
2024/01/08 10:31:36;;;;;;;3.42;2.25;;;3.90;99.90;;;;;;5032467;28;20176;-76
2024/01/08 10:34:04;;;;;;;5.00;3.10;;;3.90;99.90;;;;;;5015586;28;20659;-76
2024/01/08 10:36:32;;;;;;;5.32;2.78;;;3.90;99.90;;;;;;5050438;28;20243;-77
2024/01/08 10:39:02;;;;;;;3.75;2.80;;;3.90;99.90;;;;;;5015599;28;20485;-76
2024/01/08 10:41:28;;;;;;;4.38;2.90;;;3.90;99.90;;;;;;5050443;28;20169;-76
2024/01/08 10:43:53;;;;;;;5.50;3.80;;;3.90;99.90;;;;;;5032615;28;20188;-76
2024/01/08 10:46:21;;;;;;;5.13;3.20;;;4.00;99.90;;;;;;5044159;28;20642;-76
2024/01/08 10:48:50;;;;;;;2.97;2.05;;;4.00;99.90;;;;;;5014931;28;20181;-76
2024/01/08 10:51:17;;;;;;;4.47;3.67;;;3.90;99.90;;;;;;5027981;28;20562;-76
2024/01/08 10:53:49;;;;;;;5.32;3.45;;;3.90;99.90;;;;;;5012373;28;20200;-76
2024/01/08 10:56:22;;;;;;;3.10;2.38;;;3.80;99.90;;;;;;5036882;28;20200;-76
2024/01/08 10:59:04;;;;;;;3.65;2.28;;;3.80;99.90;;;;;;5033210;28;20187;-76
2024/01/08 11:01:32;;;;;;;3.38;2.25;;;3.70;99.90;;;;;;5028427;28;20181;-75
2024/01/08 11:03:59;;;;;;;3.25;2.10;;;3.60;99.90;;;;;;5023255;28;20184;-76
2024/01/08 11:06:28;;;;;;;2.83;2.28;;;3.50;99.90;;;;;;5050444;28;20188;-77
2024/01/08 11:08:58;;;;;;;3.13;2.60;;;3.50;99.90;;;;;;5044571;28;20184;-76
2024/01/08 11:11:25;;;;;;;4.32;2.85;;;3.40;99.90;;;;;;5036495;28;20326;-76
2024/01/08 11:13:51;;;;;;;3.00;2.05;;;3.40;99.90;;;;;;5050327;28;20253;-77
2024/01/08 11:16:29;;;;;;;3.30;2.43;;;3.40;99.90;;;;;;5015716;28;20271;-77
2024/01/08 11:19:17;;;;;;;3.67;2.65;;;3.30;99.90;;;;;;5019245;28;20173;-76
2024/01/08 11:21:43;;;;;;;3.38;2.40;;;3.30;99.90;;;;;;5037166;28;20181;-76
2024/01/08 11:24:09;;;;;;;3.58;2.40;;;3.20;99.90;;;;;;5023989;28;20169;-76
2024/01/08 11:26:41;;;;;;;3.50;2.70;;;3.20;99.90;;;;;;5015910;28;20322;-76
2024/01/08 11:29:09;;;;;;;3.35;2.15;;;3.10;99.90;;;;;;5045866;28;20196;-76
2024/01/08 11:31:47;;;;;;;5.72;3.15;;;3.00;99.90;;;;;;5042584;28;20713;-76
2024/01/08 11:34:34;;;;;;;4.28;2.65;;;2.90;99.90;;;;;;5029001;28;20642;-76
2024/01/08 11:37:38;;;;;;;3.42;2.13;;;2.90;99.90;;;;;;5038105;28;20197;-76
2024/01/08 11:40:18;;;;;;;4.90;2.58;;;2.90;99.90;;;;;;5034851;28;20228;-76
2024/01/08 11:42:49;;;;;;;2.80;2.05;;;2.90;99.90;;;;;;5032459;28;20554;-76
2024/01/08 11:45:19;;;;;;;3.72;2.35;;;2.80;99.90;;;;;;5032138;28;20265;-75
2024/01/08 11:47:45;;;;;;;5.90;2.65;;;2.80;99.90;;;;;;5030149;28;20212;-76
2024/01/08 11:50:12;;;;;;;3.67;2.30;;;2.80;99.90;;;;;;5031764;28;20187;-76
2024/01/08 11:52:39;;;;;;;3.90;1.52;;;2.80;99.90;;;;;;5028655;28;20174;-76
2024/01/08 11:55:06;;;;;;;4.22;2.70;;;2.80;99.90;;;;;;5014298;28;20185;-76
2024/01/08 11:57:34;;;;;;;3.45;2.33;;;2.80;99.90;;;;;;5034076;28;20316;-76
2024/01/08 12:00:13;;;;;;;2.97;1.92;;;2.80;99.90;;;;;;5012079;28;20256;-76
2024/01/08 12:02:39;;;;;;;3.60;2.80;;;2.70;99.90;;;;;;5017268;28;20197;-76
2024/01/08 12:05:05;;;;;;;3.75;2.75;;;2.70;99.90;;;;;;5020840;28;20227;-76
2024/01/08 12:07:37;;;;;;;4.67;3.07;;;2.70;99.90;;;;;;5041735;28;20185;-76
2024/01/08 12:10:06;;;;;;;4.10;2.80;;;2.70;99.90;;;;;;5048534;28;20583;-76
2024/01/08 12:12:31;;;;;;;3.72;2.53;;;2.70;99.90;;;;;;5025232;28;20169;-76
2024/01/08 12:14:57;;;;;;;4.87;3.07;;;2.70;99.90;;;;;;5025322;28;20178;-76
2024/01/08 12:17:24;;;;;;;5.73;3.27;;;2.70;99.90;;;;;;5031884;28;20197;-76
2024/01/08 12:19:52;;;;;;;6.10;2.15;;;2.70;99.90;;;;;;5051014;28;20554;-75
2024/01/08 12:22:19;;;;;;;4.70;2.65;;;2.70;99.90;;;;;;5045736;28;20173;-76
2024/01/08 12:24:46;;;;;;;3.53;2.58;;;2.70;99.90;;;;;;5052321;28;20215;-76
2024/01/08 12:27:17;;;;;;;4.88;2.60;;;2.70;99.90;;;;;;5044804;28;20216;-76
2024/01/08 12:29:44;;;;;;;6.47;2.88;;;2.70;99.90;;;;;;5025993;28;20208;-76
2024/01/08 12:32:12;;;;;;;4.22;2.00;;;2.70;99.90;;;;;;5034717;28;20172;-77
2024/01/08 12:34:39;;;;;;;8.05;3.08;;;2.70;99.90;;;;;;5037043;28;20184;-77
2024/01/08 12:37:06;;;;;;;7.15;3.50;;;2.60;99.90;;;;;;5050257;28;20208;-77
2024/01/08 12:39:35;;;;;;;6.35;3.10;;;2.60;99.90;;;;;;5011401;28;20237;-77
2024/01/08 12:42:06;;;;;;;4.85;2.83;;;2.60;99.90;;;;;;5033289;28;20173;-77
2024/01/08 12:44:32;;;;;;;5.20;2.22;;;2.50;99.20;;;;;;5033734;28;20271;-76
2024/01/08 12:47:00;;;;;;;4.00;2.58;;;2.50;99.90;;;;;;5034080;28;20282;-77
2024/01/08 12:49:26;;;;;;;2.70;2.17;;;2.50;99.90;;;;;;5033241;28;20533;-78
2024/01/08 12:51:53;;;;;;;4.03;2.60;;;2.50;99.90;;;;;;5017992;28;20489;-77
2024/01/08 12:54:19;;;;;;;4.15;2.47;;;2.50;99.90;;;;;;5034360;28;20177;-78
2024/01/08 12:56:45;;;;;;;3.17;2.30;;;2.50;99.90;;;;;;5048566;28;20204;-77